sensor_id;sensor_type;location;lat;lon;timestamp;temperature;humidity
2867;DHT22;1441;48.886;8.728;2023-02-26T00:01:36;1.00;83.70
2867;DHT22;1441;48.886;8.728;2023-02-26T00:04:03;1.10;82.80
2867;DHT22;1441;48.886;8.728;2023-02-26T00:06:32;1.00;83.30
2867;DHT22;1441;48.886;8.728;2023-02-26T00:08:58;0.80;85.40
2867;DHT22;1441;48.886;8.728;2023-02-26T00:11:23;0.70;85.90
2867;DHT22;1441;48.886;8.728;2023-02-26T00:13:50;0.70;85.00
2867;DHT22;1441;48.886;8.728;2023-02-26T00:16:29;0.70;86.40
2867;DHT22;1441;48.886;8.728;2023-02-26T00:18:59;0.70;85.00
2867;DHT22;1441;48.886;8.728;2023-02-26T00:21:26;0.80;84.40
2867;DHT22;1441;48.886;8.728;2023-02-26T00:23:53;0.70;85.70
2867;DHT22;1441;48.886;8.728;2023-02-26T00:26:19;0.80;83.90
2867;DHT22;1441;48.886;8.728;2023-02-26T00:28:46;0.90;83.40
2867;DHT22;1441;48.886;8.728;2023-02-26T00:31:13;0.90;83.70
2867;DHT22;1441;48.886;8.728;2023-02-26T00:33:40;1.00;83.50
2867;DHT22;1441;48.886;8.728;2023-02-26T00:41:57;0.70;84.70
2867;DHT22;1441;48.886;8.728;2023-02-26T00:44:23;0.80;84.10
2867;DHT22;1441;48.886;8.728;2023-02-26T00:47:14;0.70;84.30
2867;DHT22;1441;48.886;8.728;2023-02-26T00:50:17;0.70;84.10
2867;DHT22;1441;48.886;8.728;2023-02-26T00:55:45;0.80;83.50
2867;DHT22;1441;48.886;8.728;2023-02-26T00:58:10;0.80;83.80
2867;DHT22;1441;48.886;8.728;2023-02-26T01:00:36;0.70;84.70
2867;DHT22;1441;48.886;8.728;2023-02-26T01:03:03;0.80;84.40
2867;DHT22;1441;48.886;8.728;2023-02-26T01:05:29;0.80;83.40
2867;DHT22;1441;48.886;8.728;2023-02-26T01:08:14;0.90;83.70
2867;DHT22;1441;48.886;8.728;2023-02-26T01:10:42;0.90;83.50
2867;DHT22;1441;48.886;8.728;2023-02-26T01:13:08;0.80;83.70
2867;DHT22;1441;48.886;8.728;2023-02-26T01:15:34;0.80;83.40
2867;DHT22;1441;48.886;8.728;2023-02-26T01:18:19;0.80;83.60
2867;DHT22;1441;48.886;8.728;2023-02-26T01:20:51;0.80;83.20
2867;DHT22;1441;48.886;8.728;2023-02-26T01:23:23;0.80;83.00
2867;DHT22;1441;48.886;8.728;2023-02-26T01:25:54;0.70;83.00
2867;DHT22;1441;48.886;8.728;2023-02-26T01:28:23;0.70;83.90
2867;DHT22;1441;48.886;8.728;2023-02-26T01:30:50;0.60;83.80
2867;DHT22;1441;48.886;8.728;2023-02-26T01:33:21;0.70;84.20
2867;DHT22;1441;48.886;8.728;2023-02-26T01:35:53;0.50;84.70
2867;DHT22;1441;48.886;8.728;2023-02-26T01:41:26;0.70;83.60
2867;DHT22;1441;48.886;8.728;2023-02-26T01:44:19;0.60;83.80
2867;DHT22;1441;48.886;8.728;2023-02-26T01:49:32;0.50;85.10
2867;DHT22;1441;48.886;8.728;2023-02-26T01:52:04;0.60;84.70
2867;DHT22;1441;48.886;8.728;2023-02-26T01:54:35;0.50;84.20
2867;DHT22;1441;48.886;8.728;2023-02-26T01:57:06;0.50;84.00
2867;DHT22;1441;48.886;8.728;2023-02-26T01:59:35;0.50;84.70
2867;DHT22;1441;48.886;8.728;2023-02-26T02:02:05;0.20;85.60
2867;DHT22;1441;48.886;8.728;2023-02-26T02:04:31;0.00;86.90
2867;DHT22;1441;48.886;8.728;2023-02-26T02:06:58;-0.10;88.10
2867;DHT22;1441;48.886;8.728;2023-02-26T02:09:25;-0.10;88.60
2867;DHT22;1441;48.886;8.728;2023-02-26T02:15:15;0.00;87.20
2867;DHT22;1441;48.886;8.728;2023-02-26T02:17:49;-0.10;86.90
2867;DHT22;1441;48.886;8.728;2023-02-26T02:23:25;-0.30;89.20
2867;DHT22;1441;48.886;8.728;2023-02-26T02:26:31;-0.30;89.50
2867;DHT22;1441;48.886;8.728;2023-02-26T02:31:51;-0.10;88.00
2867;DHT22;1441;48.886;8.728;2023-02-26T02:34:28;-0.20;88.90
2867;DHT22;1441;48.886;8.728;2023-02-26T02:37:15;-0.30;90.10
2867;DHT22;1441;48.886;8.728;2023-02-26T02:39:50;-0.30;89.90
2867;DHT22;1441;48.886;8.728;2023-02-26T02:42:43;-0.40;90.10
2867;DHT22;1441;48.886;8.728;2023-02-26T02:48:07;-0.50;90.60
2867;DHT22;1441;48.886;8.728;2023-02-26T02:50:38;-0.50;90.60
2867;DHT22;1441;48.886;8.728;2023-02-26T02:53:33;-0.50;91.20
2867;DHT22;1441;48.886;8.728;2023-02-26T02:56:06;-0.50;90.90
2867;DHT22;1441;48.886;8.728;2023-02-26T02:58:51;-0.50;90.60
2867;DHT22;1441;48.886;8.728;2023-02-26T03:01:20;-0.50;90.80
2867;DHT22;1441;48.886;8.728;2023-02-26T03:04:10;-0.60;90.80
2867;DHT22;1441;48.886;8.728;2023-02-26T03:06:36;-0.60;90.40
2867;DHT22;1441;48.886;8.728;2023-02-26T03:09:03;-0.70;90.40
2867;DHT22;1441;48.886;8.728;2023-02-26T03:11:30;-0.70;90.60
2867;DHT22;1441;48.886;8.728;2023-02-26T03:13:56;-0.70;91.50
2867;DHT22;1441;48.886;8.728;2023-02-26T03:21:53;-0.80;91.70
2867;DHT22;1441;48.886;8.728;2023-02-26T03:24:36;-0.80;92.10
2867;DHT22;1441;48.886;8.728;2023-02-26T03:27:10;-0.80;92.20
2867;DHT22;1441;48.886;8.728;2023-02-26T03:33:14;-0.90;92.50
2867;DHT22;1441;48.886;8.728;2023-02-26T03:35:19;-0.60;90.10
2867;DHT22;1441;48.886;8.728;2023-02-26T03:37:53;-0.60;89.70
2867;DHT22;1441;48.886;8.728;2023-02-26T03:40:39;-0.80;90.80
2867;DHT22;1441;48.886;8.728;2023-02-26T03:43:12;-0.90;91.70
2867;DHT22;1441;48.886;8.728;2023-02-26T03:45:40;-1.00;92.00
2867;DHT22;1441;48.886;8.728;2023-02-26T03:48:09;-1.00;92.30
2867;DHT22;1441;48.886;8.728;2023-02-26T03:50:39;-1.00;92.60
2867;DHT22;1441;48.886;8.728;2023-02-26T03:53:09;-1.00;92.90
2867;DHT22;1441;48.886;8.728;2023-02-26T03:55:43;-1.00;93.00
2867;DHT22;1441;48.886;8.728;2023-02-26T03:58:09;-1.00;92.50
2867;DHT22;1441;48.886;8.728;2023-02-26T04:00:37;-1.00;92.20
2867;DHT22;1441;48.886;8.728;2023-02-26T04:03:13;-1.10;92.60
2867;DHT22;1441;48.886;8.728;2023-02-26T04:05:44;-1.10;93.00
2867;DHT22;1441;48.886;8.728;2023-02-26T04:08:11;-1.20;93.00
2867;DHT22;1441;48.886;8.728;2023-02-26T04:10:41;-1.20;93.60
2867;DHT22;1441;48.886;8.728;2023-02-26T04:13:08;-1.10;92.70
2867;DHT22;1441;48.886;8.728;2023-02-26T04:15:33;-1.00;92.30
2867;DHT22;1441;48.886;8.728;2023-02-26T04:17:59;-1.10;91.90
2867;DHT22;1441;48.886;8.728;2023-02-26T04:20:24;-1.20;92.60
2867;DHT22;1441;48.886;8.728;2023-02-26T04:22:50;-1.30;93.20
2867;DHT22;1441;48.886;8.728;2023-02-26T04:25:16;-1.30;93.30
2867;DHT22;1441;48.886;8.728;2023-02-26T04:27:41;-1.10;92.20
2867;DHT22;1441;48.886;8.728;2023-02-26T04:30:07;-0.90;91.70
2867;DHT22;1441;48.886;8.728;2023-02-26T04:32:33;-1.00;91.90
2867;DHT22;1441;48.886;8.728;2023-02-26T04:34:59;-1.10;92.40
2867;DHT22;1441;48.886;8.728;2023-02-26T04:37:24;-1.20;93.00
2867;DHT22;1441;48.886;8.728;2023-02-26T04:39:50;-1.20;93.20
2867;DHT22;1441;48.886;8.728;2023-02-26T04:42:15;-1.20;93.20
2867;DHT22;1441;48.886;8.728;2023-02-26T04:44:41;-1.20;92.90
2867;DHT22;1441;48.886;8.728;2023-02-26T04:47:06;-1.20;92.80
2867;DHT22;1441;48.886;8.728;2023-02-26T04:49:32;-1.30;93.20
2867;DHT22;1441;48.886;8.728;2023-02-26T04:51:58;-1.40;93.70
2867;DHT22;1441;48.886;8.728;2023-02-26T04:54:23;-1.40;93.70
2867;DHT22;1441;48.886;8.728;2023-02-26T04:56:49;-1.40;93.90
2867;DHT22;1441;48.886;8.728;2023-02-26T04:59:14;-1.30;93.60
2867;DHT22;1441;48.886;8.728;2023-02-26T05:01:40;-1.30;94.10
2867;DHT22;1441;48.886;8.728;2023-02-26T05:04:05;-1.40;93.40
2867;DHT22;1441;48.886;8.728;2023-02-26T05:06:31;-1.50;93.80
2867;DHT22;1441;48.886;8.728;2023-02-26T05:08:57;-1.60;94.00
2867;DHT22;1441;48.886;8.728;2023-02-26T05:11:22;-1.70;94.00
2867;DHT22;1441;48.886;8.728;2023-02-26T05:13:48;-1.70;94.30
2867;DHT22;1441;48.886;8.728;2023-02-26T05:16:13;-1.70;94.60
2867;DHT22;1441;48.886;8.728;2023-02-26T05:18:39;-1.70;94.00
2867;DHT22;1441;48.886;8.728;2023-02-26T05:21:05;-1.80;94.40
2867;DHT22;1441;48.886;8.728;2023-02-26T05:23:30;-1.80;94.30
2867;DHT22;1441;48.886;8.728;2023-02-26T05:25:56;-1.90;95.00
2867;DHT22;1441;48.886;8.728;2023-02-26T05:28:23;-1.90;95.10
2867;DHT22;1441;48.886;8.728;2023-02-26T05:30:49;-1.90;95.10
2867;DHT22;1441;48.886;8.728;2023-02-26T05:33:15;-1.90;95.20
2867;DHT22;1441;48.886;8.728;2023-02-26T05:35:41;-1.80;95.10
2867;DHT22;1441;48.886;8.728;2023-02-26T05:38:06;-1.80;95.00
2867;DHT22;1441;48.886;8.728;2023-02-26T05:40:32;-1.70;94.60
2867;DHT22;1441;48.886;8.728;2023-02-26T05:42:57;-1.70;95.40
2867;DHT22;1441;48.886;8.728;2023-02-26T05:45:23;-1.80;95.20
2867;DHT22;1441;48.886;8.728;2023-02-26T05:47:48;-1.80;94.80
2867;DHT22;1441;48.886;8.728;2023-02-26T05:50:14;-1.60;94.90
2867;DHT22;1441;48.886;8.728;2023-02-26T05:52:39;-1.60;95.40
2867;DHT22;1441;48.886;8.728;2023-02-26T05:55:06;-1.60;95.50
2867;DHT22;1441;48.886;8.728;2023-02-26T05:57:32;-1.50;94.70
2867;DHT22;1441;48.886;8.728;2023-02-26T05:59:57;-1.60;94.60
2867;DHT22;1441;48.886;8.728;2023-02-26T06:02:23;-1.60;94.70
2867;DHT22;1441;48.886;8.728;2023-02-26T06:04:48;-1.70;94.70
2867;DHT22;1441;48.886;8.728;2023-02-26T06:07:14;-1.80;94.40
2867;DHT22;1441;48.886;8.728;2023-02-26T06:09:39;-1.80;94.50
2867;DHT22;1441;48.886;8.728;2023-02-26T06:12:05;-1.80;95.20
2867;DHT22;1441;48.886;8.728;2023-02-26T06:14:32;-1.70;95.30
2867;DHT22;1441;48.886;8.728;2023-02-26T06:16:58;-1.60;95.40
2867;DHT22;1441;48.886;8.728;2023-02-26T06:19:23;-1.50;95.10
2867;DHT22;1441;48.886;8.728;2023-02-26T06:21:49;-1.60;94.80
2867;DHT22;1441;48.886;8.728;2023-02-26T06:24:14;-1.50;94.80
2867;DHT22;1441;48.886;8.728;2023-02-26T06:26:40;-1.50;95.10
2867;DHT22;1441;48.886;8.728;2023-02-26T06:29:06;-1.50;94.50
2867;DHT22;1441;48.886;8.728;2023-02-26T06:31:32;-1.40;94.40
2867;DHT22;1441;48.886;8.728;2023-02-26T06:33:58;-1.30;93.70
2867;DHT22;1441;48.886;8.728;2023-02-26T06:36:23;-1.10;93.00
2867;DHT22;1441;48.886;8.728;2023-02-26T06:38:49;-1.20;93.10
2867;DHT22;1441;48.886;8.728;2023-02-26T06:41:14;-1.10;93.50
2867;DHT22;1441;48.886;8.728;2023-02-26T06:43:40;-1.00;92.50
2867;DHT22;1441;48.886;8.728;2023-02-26T06:46:06;-1.00;92.30
2867;DHT22;1441;48.886;8.728;2023-02-26T06:48:31;-1.00;92.40
2867;DHT22;1441;48.886;8.728;2023-02-26T06:50:57;-0.90;92.80
2867;DHT22;1441;48.886;8.728;2023-02-26T06:53:23;-1.00;92.30
2867;DHT22;1441;48.886;8.728;2023-02-26T06:55:51;-1.10;93.30
2867;DHT22;1441;48.886;8.728;2023-02-26T06:58:18;-1.00;92.90
2867;DHT22;1441;48.886;8.728;2023-02-26T07:00:44;-0.90;92.60
2867;DHT22;1441;48.886;8.728;2023-02-26T07:03:12;-0.70;92.40
2867;DHT22;1441;48.886;8.728;2023-02-26T07:05:38;-0.80;92.80
2867;DHT22;1441;48.886;8.728;2023-02-26T07:08:04;-0.90;93.50
2867;DHT22;1441;48.886;8.728;2023-02-26T07:10:32;-0.60;92.10
2867;DHT22;1441;48.886;8.728;2023-02-26T07:12:58;-0.40;91.00
2867;DHT22;1441;48.886;8.728;2023-02-26T07:15:23;-0.30;90.90
2867;DHT22;1441;48.886;8.728;2023-02-26T07:17:49;-0.20;90.10
2867;DHT22;1441;48.886;8.728;2023-02-26T07:20:15;-0.20;90.20
2867;DHT22;1441;48.886;8.728;2023-02-26T07:22:42;-0.20;90.70
2867;DHT22;1441;48.886;8.728;2023-02-26T07:25:08;-0.20;90.10
2867;DHT22;1441;48.886;8.728;2023-02-26T07:27:34;-0.20;89.70
2867;DHT22;1441;48.886;8.728;2023-02-26T07:29:59;-0.20;89.70
2867;DHT22;1441;48.886;8.728;2023-02-26T07:32:25;-0.20;89.30
2867;DHT22;1441;48.886;8.728;2023-02-26T07:34:51;-0.20;89.70
2867;DHT22;1441;48.886;8.728;2023-02-26T07:37:17;-0.50;91.10
2867;DHT22;1441;48.886;8.728;2023-02-26T07:39:44;-0.50;91.10
2867;DHT22;1441;48.886;8.728;2023-02-26T07:42:09;-0.30;90.30
2867;DHT22;1441;48.886;8.728;2023-02-26T07:44:35;-0.20;90.30
2867;DHT22;1441;48.886;8.728;2023-02-26T07:47:01;-0.30;90.80
2867;DHT22;1441;48.886;8.728;2023-02-26T07:49:27;-0.20;89.70
2867;DHT22;1441;48.886;8.728;2023-02-26T07:51:52;-0.10;89.50
2867;DHT22;1441;48.886;8.728;2023-02-26T07:54:18;0.10;88.70
2867;DHT22;1441;48.886;8.728;2023-02-26T07:56:43;0.40;88.00
2867;DHT22;1441;48.886;8.728;2023-02-26T07:59:09;0.30;89.00
2867;DHT22;1441;48.886;8.728;2023-02-26T08:01:36;0.60;87.80
2867;DHT22;1441;48.886;8.728;2023-02-26T08:04:02;0.90;85.80
2867;DHT22;1441;48.886;8.728;2023-02-26T08:06:28;1.00;85.60
2867;DHT22;1441;48.886;8.728;2023-02-26T08:08:53;1.00;84.80
2867;DHT22;1441;48.886;8.728;2023-02-26T08:11:19;0.70;87.30
2867;DHT22;1441;48.886;8.728;2023-02-26T08:13:44;1.10;86.00
2867;DHT22;1441;48.886;8.728;2023-02-26T08:16:10;1.50;83.80
2867;DHT22;1441;48.886;8.728;2023-02-26T08:18:35;1.60;82.70
2867;DHT22;1441;48.886;8.728;2023-02-26T08:21:02;1.70;82.90
2867;DHT22;1441;48.886;8.728;2023-02-26T08:23:27;1.80;82.80
2867;DHT22;1441;48.886;8.728;2023-02-26T08:26:00;1.80;82.50
2867;DHT22;1441;48.886;8.728;2023-02-26T08:28:26;1.70;82.90
2867;DHT22;1441;48.886;8.728;2023-02-26T08:30:52;1.80;82.60
2867;DHT22;1441;48.886;8.728;2023-02-26T08:33:18;1.70;83.40
2867;DHT22;1441;48.886;8.728;2023-02-26T08:35:44;1.70;83.00
2867;DHT22;1441;48.886;8.728;2023-02-26T08:38:09;1.40;83.00
2867;DHT22;1441;48.886;8.728;2023-02-26T08:40:35;1.30;83.30
2867;DHT22;1441;48.886;8.728;2023-02-26T08:43:01;0.90;83.90
2867;DHT22;1441;48.886;8.728;2023-02-26T08:45:28;0.60;84.80
2867;DHT22;1441;48.886;8.728;2023-02-26T08:47:54;0.40;86.40
2867;DHT22;1441;48.886;8.728;2023-02-26T08:50:20;0.40;87.00
2867;DHT22;1441;48.886;8.728;2023-02-26T08:52:45;0.70;86.90
2867;DHT22;1441;48.886;8.728;2023-02-26T08:55:11;0.80;86.30
2867;DHT22;1441;48.886;8.728;2023-02-26T08:57:37;0.90;85.70
2867;DHT22;1441;48.886;8.728;2023-02-26T09:00:04;0.80;85.80
2867;DHT22;1441;48.886;8.728;2023-02-26T09:02:30;0.80;85.60
2867;DHT22;1441;48.886;8.728;2023-02-26T09:04:55;0.60;85.70
2867;DHT22;1441;48.886;8.728;2023-02-26T09:07:21;0.40;86.50
2867;DHT22;1441;48.886;8.728;2023-02-26T09:09:46;0.30;87.20
2867;DHT22;1441;48.886;8.728;2023-02-26T09:12:12;0.40;87.70
2867;DHT22;1441;48.886;8.728;2023-02-26T09:14:37;0.60;87.90
2867;DHT22;1441;48.886;8.728;2023-02-26T09:17:03;0.60;87.50
2867;DHT22;1441;48.886;8.728;2023-02-26T09:19:29;0.40;87.80
2867;DHT22;1441;48.886;8.728;2023-02-26T09:21:54;0.30;88.50
2867;DHT22;1441;48.886;8.728;2023-02-26T09:24:20;0.30;89.40
2867;DHT22;1441;48.886;8.728;2023-02-26T09:26:46;0.30;89.30
2867;DHT22;1441;48.886;8.728;2023-02-26T09:29:11;0.30;90.00
2867;DHT22;1441;48.886;8.728;2023-02-26T09:31:38;0.40;89.50
2867;DHT22;1441;48.886;8.728;2023-02-26T09:34:04;0.50;89.40
2867;DHT22;1441;48.886;8.728;2023-02-26T09:36:30;0.50;89.10
2867;DHT22;1441;48.886;8.728;2023-02-26T09:38:56;0.50;89.50
2867;DHT22;1441;48.886;8.728;2023-02-26T09:41:31;0.40;89.60
2867;DHT22;1441;48.886;8.728;2023-02-26T09:46:38;0.50;89.20
2867;DHT22;1441;48.886;8.728;2023-02-26T09:49:21;0.50;89.70
2867;DHT22;1441;48.886;8.728;2023-02-26T09:51:53;0.50;88.80
2867;DHT22;1441;48.886;8.728;2023-02-26T09:54:32;0.50;88.60
2867;DHT22;1441;48.886;8.728;2023-02-26T09:57:01;0.40;88.50
2867;DHT22;1441;48.886;8.728;2023-02-26T09:59:31;0.40;89.20
2867;DHT22;1441;48.886;8.728;2023-02-26T10:02:14;0.40;89.40
2867;DHT22;1441;48.886;8.728;2023-02-26T10:04:47;0.40;89.50
2867;DHT22;1441;48.886;8.728;2023-02-26T10:07:25;0.40;89.60
2867;DHT22;1441;48.886;8.728;2023-02-26T10:12:50;0.50;89.10
2867;DHT22;1441;48.886;8.728;2023-02-26T10:15:28;0.50;88.50
2867;DHT22;1441;48.886;8.728;2023-02-26T10:18:31;0.50;88.90
2867;DHT22;1441;48.886;8.728;2023-02-26T10:21:09;0.70;88.20
2867;DHT22;1441;48.886;8.728;2023-02-26T10:23:43;0.60;88.00
2867;DHT22;1441;48.886;8.728;2023-02-26T10:29:21;0.70;88.00
2867;DHT22;1441;48.886;8.728;2023-02-26T10:34:38;0.80;87.90
2867;DHT22;1441;48.886;8.728;2023-02-26T10:42:49;0.90;86.80
2867;DHT22;1441;48.886;8.728;2023-02-26T10:51:11;1.30;86.00
2867;DHT22;1441;48.886;8.728;2023-02-26T10:53:37;1.30;85.30
2867;DHT22;1441;48.886;8.728;2023-02-26T10:56:08;1.40;85.20
2867;DHT22;1441;48.886;8.728;2023-02-26T10:58:35;1.20;85.00
2867;DHT22;1441;48.886;8.728;2023-02-26T11:01:01;1.30;85.40
2867;DHT22;1441;48.886;8.728;2023-02-26T11:03:33;1.20;85.10
2867;DHT22;1441;48.886;8.728;2023-02-26T11:06:01;1.10;84.90
2867;DHT22;1441;48.886;8.728;2023-02-26T11:08:42;1.20;85.60
2867;DHT22;1441;48.886;8.728;2023-02-26T11:11:09;1.40;86.00
2867;DHT22;1441;48.886;8.728;2023-02-26T11:13:37;1.30;84.90
2867;DHT22;1441;48.886;8.728;2023-02-26T11:16:14;1.10;85.90
2867;DHT22;1441;48.886;8.728;2023-02-26T11:18:50;1.20;86.50
2867;DHT22;1441;48.886;8.728;2023-02-26T11:21:22;1.30;86.40
2867;DHT22;1441;48.886;8.728;2023-02-26T11:23:51;1.40;86.10
2867;DHT22;1441;48.886;8.728;2023-02-26T11:26:25;1.50;85.30
2867;DHT22;1441;48.886;8.728;2023-02-26T11:28:54;1.60;84.80
2867;DHT22;1441;48.886;8.728;2023-02-26T11:31:22;1.60;85.20
2867;DHT22;1441;48.886;8.728;2023-02-26T11:34:08;1.60;85.30
2867;DHT22;1441;48.886;8.728;2023-02-26T11:36:38;1.60;84.30
2867;DHT22;1441;48.886;8.728;2023-02-26T11:39:10;1.60;85.10
2867;DHT22;1441;48.886;8.728;2023-02-26T11:41:37;1.50;85.20
2867;DHT22;1441;48.886;8.728;2023-02-26T11:44:15;1.50;86.00
2867;DHT22;1441;48.886;8.728;2023-02-26T11:46:52;1.50;85.00
2867;DHT22;1441;48.886;8.728;2023-02-26T11:49:22;1.40;85.60
2867;DHT22;1441;48.886;8.728;2023-02-26T11:52:22;1.40;85.70
2867;DHT22;1441;48.886;8.728;2023-02-26T11:54:45;1.20;85.40
2867;DHT22;1441;48.886;8.728;2023-02-26T11:57:23;1.20;86.00
2867;DHT22;1441;48.886;8.728;2023-02-26T11:59:51;1.30;86.00
2867;DHT22;1441;48.886;8.728;2023-02-26T12:02:23;1.40;85.90
2867;DHT22;1441;48.886;8.728;2023-02-26T12:04:52;1.50;85.20
2867;DHT22;1441;48.886;8.728;2023-02-26T12:07:19;1.50;84.20
2867;DHT22;1441;48.886;8.728;2023-02-26T12:09:46;1.60;84.20
2867;DHT22;1441;48.886;8.728;2023-02-26T12:12:21;1.60;84.20
2867;DHT22;1441;48.886;8.728;2023-02-26T12:18:20;1.50;84.30
2867;DHT22;1441;48.886;8.728;2023-02-26T12:21:16;1.40;84.20
2867;DHT22;1441;48.886;8.728;2023-02-26T12:26:53;1.40;83.90
2867;DHT22;1441;48.886;8.728;2023-02-26T12:29:26;1.40;84.20
2867;DHT22;1441;48.886;8.728;2023-02-26T12:32:15;1.40;84.00
2867;DHT22;1441;48.886;8.728;2023-02-26T12:35:10;1.30;84.80
2867;DHT22;1441;48.886;8.728;2023-02-26T12:37:45;1.20;85.10
2867;DHT22;1441;48.886;8.728;2023-02-26T12:40:30;1.30;85.70
2867;DHT22;1441;48.886;8.728;2023-02-26T12:43:30;1.20;84.80
2867;DHT22;1441;48.886;8.728;2023-02-26T12:46:12;1.30;84.90
2867;DHT22;1441;48.886;8.728;2023-02-26T12:51:43;1.50;84.80
2867;DHT22;1441;48.886;8.728;2023-02-26T12:54:23;1.50;84.20
2867;DHT22;1441;48.886;8.728;2023-02-26T12:57:11;1.60;84.60
2867;DHT22;1441;48.886;8.728;2023-02-26T13:02:46;1.70;84.40
2867;DHT22;1441;48.886;8.728;2023-02-26T13:05:24;1.50;84.80
2867;DHT22;1441;48.886;8.728;2023-02-26T13:14:59;1.40;87.60
2867;DHT22;1441;48.886;8.728;2023-02-26T13:17:31;1.40;87.00
2867;DHT22;1441;48.886;8.728;2023-02-26T13:20:19;1.60;87.00
2867;DHT22;1441;48.886;8.728;2023-02-26T13:22:51;1.80;86.50
2867;DHT22;1441;48.886;8.728;2023-02-26T13:25:36;2.00;84.90
2867;DHT22;1441;48.886;8.728;2023-02-26T13:30:51;1.80;83.10
2867;DHT22;1441;48.886;8.728;2023-02-26T13:33:25;1.80;83.40
2867;DHT22;1441;48.886;8.728;2023-02-26T13:35:53;1.60;83.70
2867;DHT22;1441;48.886;8.728;2023-02-26T13:41:15;1.60;84.40
2867;DHT22;1441;48.886;8.728;2023-02-26T13:48:51;2.00;81.60
2867;DHT22;1441;48.886;8.728;2023-02-26T13:54:47;1.80;82.40
2867;DHT22;1441;48.886;8.728;2023-02-26T13:57:08;1.90;82.30
2867;DHT22;1441;48.886;8.728;2023-02-26T13:59:36;2.00;81.90
2867;DHT22;1441;48.886;8.728;2023-02-26T14:02:35;2.10;82.10
2867;DHT22;1441;48.886;8.728;2023-02-26T14:05:23;2.20;82.40
2867;DHT22;1441;48.886;8.728;2023-02-26T14:08:06;2.20;81.60
2867;DHT22;1441;48.886;8.728;2023-02-26T14:13:17;2.20;79.70
2867;DHT22;1441;48.886;8.728;2023-02-26T14:18:34;2.10;77.50
2867;DHT22;1441;48.886;8.728;2023-02-26T14:21:35;2.10;77.40
2867;DHT22;1441;48.886;8.728;2023-02-26T14:33:36;1.90;77.00
2867;DHT22;1441;48.886;8.728;2023-02-26T14:35:45;1.80;77.70
2867;DHT22;1441;48.886;8.728;2023-02-26T14:40:47;1.80;78.20
2867;DHT22;1441;48.886;8.728;2023-02-26T14:43:19;1.70;78.60
2867;DHT22;1441;48.886;8.728;2023-02-26T14:45:46;1.70;79.70
2867;DHT22;1441;48.886;8.728;2023-02-26T14:48:17;1.70;78.80
2867;DHT22;1441;48.886;8.728;2023-02-26T15:02:29;2.20;78.50
2867;DHT22;1441;48.886;8.728;2023-02-26T15:05:19;2.20;77.90
2867;DHT22;1441;48.886;8.728;2023-02-26T15:16:28;2.10;78.60
2867;DHT22;1441;48.886;8.728;2023-02-26T15:21:47;2.00;79.10
2867;DHT22;1441;48.886;8.728;2023-02-26T15:24:17;2.10;79.50
2867;DHT22;1441;48.886;8.728;2023-02-26T15:26:49;2.10;78.60
2867;DHT22;1441;48.886;8.728;2023-02-26T15:29:16;2.10;78.90
2867;DHT22;1441;48.886;8.728;2023-02-26T15:31:46;2.00;78.90
2867;DHT22;1441;48.886;8.728;2023-02-26T15:34:15;1.90;78.70
2867;DHT22;1441;48.886;8.728;2023-02-26T15:36:47;1.90;79.00
2867;DHT22;1441;48.886;8.728;2023-02-26T15:39:15;1.90;79.50
2867;DHT22;1441;48.886;8.728;2023-02-26T15:41:42;2.00;78.80
2867;DHT22;1441;48.886;8.728;2023-02-26T15:44:12;2.00;78.40
2867;DHT22;1441;48.886;8.728;2023-02-26T15:46:41;2.00;78.30
2867;DHT22;1441;48.886;8.728;2023-02-26T15:49:32;2.00;76.80
2867;DHT22;1441;48.886;8.728;2023-02-26T15:52:00;2.00;77.20
2867;DHT22;1441;48.886;8.728;2023-02-26T15:54:34;1.90;76.90
2867;DHT22;1441;48.886;8.728;2023-02-26T15:57:03;1.90;77.40
2867;DHT22;1441;48.886;8.728;2023-02-26T15:59:31;1.90;77.20
2867;DHT22;1441;48.886;8.728;2023-02-26T16:05:18;1.80;76.20
2867;DHT22;1441;48.886;8.728;2023-02-26T16:07:44;1.70;76.30
2867;DHT22;1441;48.886;8.728;2023-02-26T16:10:40;1.60;76.20
2867;DHT22;1441;48.886;8.728;2023-02-26T16:13:15;1.60;75.70
2867;DHT22;1441;48.886;8.728;2023-02-26T16:15:42;1.50;75.00
2867;DHT22;1441;48.886;8.728;2023-02-26T16:18:17;1.60;75.80
2867;DHT22;1441;48.886;8.728;2023-02-26T16:20:48;1.50;75.00
2867;DHT22;1441;48.886;8.728;2023-02-26T16:23:21;1.50;75.40
2867;DHT22;1441;48.886;8.728;2023-02-26T16:26:03;1.40;75.60
2867;DHT22;1441;48.886;8.728;2023-02-26T16:28:32;1.40;76.00
2867;DHT22;1441;48.886;8.728;2023-02-26T16:31:01;1.40;76.70
2867;DHT22;1441;48.886;8.728;2023-02-26T16:33:32;1.40;76.80
2867;DHT22;1441;48.886;8.728;2023-02-26T16:36:12;1.40;76.50
2867;DHT22;1441;48.886;8.728;2023-02-26T16:38:47;1.30;76.80
2867;DHT22;1441;48.886;8.728;2023-02-26T16:41:14;1.20;76.90
2867;DHT22;1441;48.886;8.728;2023-02-26T16:46:44;1.20;77.50
2867;DHT22;1441;48.886;8.728;2023-02-26T16:49:25;1.30;77.30
2867;DHT22;1441;48.886;8.728;2023-02-26T16:51:55;1.30;77.60
2867;DHT22;1441;48.886;8.728;2023-02-26T16:54:28;1.20;77.70
2867;DHT22;1441;48.886;8.728;2023-02-26T16:57:18;1.20;78.20
2867;DHT22;1441;48.886;8.728;2023-02-26T17:00:06;1.20;77.70
2867;DHT22;1441;48.886;8.728;2023-02-26T17:02:37;1.30;77.10
2867;DHT22;1441;48.886;8.728;2023-02-26T17:05:30;1.20;77.20
2867;DHT22;1441;48.886;8.728;2023-02-26T17:08:17;1.20;77.10
2867;DHT22;1441;48.886;8.728;2023-02-26T17:11:02;1.20;77.70
2867;DHT22;1441;48.886;8.728;2023-02-26T17:13:30;1.20;78.00
2867;DHT22;1441;48.886;8.728;2023-02-26T17:16:02;1.30;78.10
2867;DHT22;1441;48.886;8.728;2023-02-26T17:18:29;1.20;77.80
2867;DHT22;1441;48.886;8.728;2023-02-26T17:20:55;1.20;78.10
2867;DHT22;1441;48.886;8.728;2023-02-26T17:23:25;1.30;78.40
2867;DHT22;1441;48.886;8.728;2023-02-26T17:25:53;1.30;78.10
2867;DHT22;1441;48.886;8.728;2023-02-26T17:28:26;1.20;77.40
2867;DHT22;1441;48.886;8.728;2023-02-26T17:30:53;1.10;77.50
2867;DHT22;1441;48.886;8.728;2023-02-26T17:33:19;1.00;77.50
2867;DHT22;1441;48.886;8.728;2023-02-26T17:35:45;1.00;77.60
2867;DHT22;1441;48.886;8.728;2023-02-26T17:38:12;1.00;77.30
2867;DHT22;1441;48.886;8.728;2023-02-26T17:40:39;1.00;77.20
2867;DHT22;1441;48.886;8.728;2023-02-26T17:43:05;1.00;77.50
2867;DHT22;1441;48.886;8.728;2023-02-26T17:45:32;1.00;76.90
2867;DHT22;1441;48.886;8.728;2023-02-26T17:47:59;0.90;77.10
2867;DHT22;1441;48.886;8.728;2023-02-26T17:52:59;0.90;77.40
2867;DHT22;1441;48.886;8.728;2023-02-26T17:55:24;0.90;77.70
2867;DHT22;1441;48.886;8.728;2023-02-26T17:57:50;0.90;77.60
2867;DHT22;1441;48.886;8.728;2023-02-26T18:00:16;0.90;77.60
2867;DHT22;1441;48.886;8.728;2023-02-26T18:02:42;0.90;77.70
2867;DHT22;1441;48.886;8.728;2023-02-26T18:05:08;0.80;77.80
2867;DHT22;1441;48.886;8.728;2023-02-26T18:07:34;0.80;77.90
2867;DHT22;1441;48.886;8.728;2023-02-26T18:10:00;0.80;77.80
2867;DHT22;1441;48.886;8.728;2023-02-26T18:12:26;0.70;76.50
2867;DHT22;1441;48.886;8.728;2023-02-26T18:14:51;0.70;76.80
2867;DHT22;1441;48.886;8.728;2023-02-26T18:17:22;0.60;76.40
2867;DHT22;1441;48.886;8.728;2023-02-26T18:19:48;0.60;76.40
2867;DHT22;1441;48.886;8.728;2023-02-26T18:22:15;0.60;76.40
2867;DHT22;1441;48.886;8.728;2023-02-26T18:24:41;0.60;76.90
2867;DHT22;1441;48.886;8.728;2023-02-26T18:27:15;0.60;76.50
2867;DHT22;1441;48.886;8.728;2023-02-26T18:29:41;0.60;76.10
2867;DHT22;1441;48.886;8.728;2023-02-26T18:32:21;0.60;76.30
2867;DHT22;1441;48.886;8.728;2023-02-26T18:34:47;0.60;76.30
2867;DHT22;1441;48.886;8.728;2023-02-26T18:37:18;0.60;76.20
2867;DHT22;1441;48.886;8.728;2023-02-26T18:39:44;0.60;75.70
2867;DHT22;1441;48.886;8.728;2023-02-26T18:42:25;0.60;75.70
2867;DHT22;1441;48.886;8.728;2023-02-26T18:44:51;0.60;75.70
2867;DHT22;1441;48.886;8.728;2023-02-26T18:47:18;0.50;75.80
2867;DHT22;1441;48.886;8.728;2023-02-26T18:49:45;0.60;76.10
2867;DHT22;1441;48.886;8.728;2023-02-26T18:52:11;0.60;75.90
2867;DHT22;1441;48.886;8.728;2023-02-26T18:54:37;0.60;75.70